Terminal Aerodrome Forecast
Issued by NWS

Home | Current Version | Previous Version | Text Only | Print | Product List | Glossary On
Versions: 1 2 3 4 5 6 7 8 9 10 11 12 13 14 15 16 17 18 19 20 21 22 23 24
000
FTUS44 KHGX 191418 AAA
TAFUTS
TAF AMD
KUTS 191418Z 1914/2012 12006KT 5SM BR OVC005
      TEMPO 1914/1916 1 1/2SM BR OVC003
     FM191630 15007KT P6SM BKN015
     FM191800 15011KT P6SM BKN025
     FM192000 16012KT P6SM BKN035
     FM200300 15008KT P6SM VCSH BKN015
     FM200900 16007KT 6SM -TSRA SCT009 BKN025CB=

USA.gov is the U.S. government's official web portal to all federal, state and local government web resources and services.